Princeton, Oregon
Current Conditions -  °F | °C
As of 11:09 PM on Wednesday 17 Dec 2014 (Local Time) from KBNO Reporting Station
Haze Haze  
Wind Chill: 33°   Ceiling: 2000
Heat Index: 33°   Visibility: 6mi
Dew Point: 31°   Wind: 0mph
Humidity: 92%   Direction: NA
Pressure: 29.99"   Gusts: NA
Location:  43.25°N, 118.58°W
Report Text: KBNO 180709Z AUTO 00000KT 6SM BR BKN020 BKN025 OVC065 01/M01 A2999 RMK AO2 T00061006
Loading
Personal Weather Stations






























Interactive Weather Map New forecast layout! Learn more

10-Day Weather Forecast

Advertisements
Track Severe Weather on mobile